To NAV CANADA Home Page Login to a new session Search on AWWS site Feedback and Comments Disclaimer Vers la page française équivalente Tips FAQ What's new on the site To the Forecasts and Observations / NOTAM section To "File a Flight Plan" website Publications and other links Update of the User's profile FIC Telephone Numbers My Weather Data Folder Route Weather Data Regional Weather Data Local Weather Data To the Forecasts and Observations / NOTAM section
Request Generated 06/01/2016 at 07:18:13 UTC . Weather information available at that time is displayed.

METAR/TAF

GREENWOOD/NS    

METAR CYZX 010700Z 26004KT 15SM FEW095 14/12 A2992 RMK AC2 WNDY HILL 32008KT SLP134=
METAR CYZX 010600Z 00000KT 15SM BKN090 15/12 A2991 RMK AC7 WNDY HILL 30010G15KT SLP130=
METAR CYZX 010500Z 23006KT 15SM BKN100 15/11 A2990 RMK AC6 WNDY HILL 29008KT SLP127=

TAF CYZX 010530Z 0106/0206 VRB03KT P6SM BKN100
BECMG 0107/0109 SCT008 OVC020
FM010900 VRB03KT P6SM SCT008 OVC020 TEMPO 0109/0111 SCT004 OVC008
FM011100 03010KT P6SM SCT008 BKN020
BECMG 0111/0113 SCT020
FM011500 03015KT P6SM SKC
FM020100 05005KT P6SM BKN250
RMK NXT FCST BY 011200Z=
Your time UTC time
Weather data provided by Environment Canada and NAV CANADA